• Join FlightAware (Why Join?)
  • Login
  • US Flag 
12:48AM EDT


 

Airport Tracker/Info


-or-


 

Live Flight TrackerFlight Track Log ✈ JBU1013 ✈ 13-Jul-2013 ✈ KJFK - KLGB

Flight Track Log - Related Links

Times and Time Zones

All times are in EDT time to prevent confusion due to time zone crossing. See the JBU1013 flight status page for this flight to view local times or setup timezone preferences in your user account.

Time Position Orientation Groundspeed Altitude Reporting Facility
EDT Latitude Longitude Course Direction KTS MPH feet Rate Location/Type
07:39PM 40.6000 -73.8000 270° West 177 204 1,800  Level New York TRACON
07:40PM 40.5500 -73.8167 194° South 237 273 3,100 2,100 Climbing New York TRACON
07:41PM 41.0093 -73.7667 North  Level FlightAware Approximate
07:42PM 41.1065 -73.8119 281° West  Level FlightAware Approximate
07:42PM 40.6233 -73.6175 64° Northeast 300 345 9,300  Level New York Center
07:43PM 41.1373 -73.9696 285° West  Level FlightAware Approximate
07:43PM 40.7114 -73.5856 15° North 293 337 11,000  Level New York Center
07:44PM 41.1667 -74.1272 270° West  Level FlightAware Approximate
07:44PM 40.8178 -73.5872 359° North 355 409 12,400  Level New York Center
07:45PM 40.9044 -73.6236 342° North 363 418 15,100 2,640 Climbing New York Center
07:46PM 40.9944 -73.6908 331° Northwest 346 398 17,800 1,440 Climbing New York Center
07:47PM 41.0822 -73.7578 330° Northwest 346 398 18,000 360 Climbing New York Center
07:48PM 41.1272 -73.8700 298° West 377 434 18,600 900 Climbing New York Center
07:49PM 41.1542 -74.0311 283° West 394 453 19,900 1,140 Climbing New York Center
07:50PM 41.1769 -74.1808 281° West 406 467 21,000 1,560 Climbing New York Center
07:51PM 41.1828 -74.3328 273° West 413 475 23,000 1,980 Climbing New York Center
07:52PM 41.1639 -74.4753 260° West 397 457 25,000 1,620 Climbing New York Center
07:53PM 41.1283 -74.6136 251° West 404 465 26,300 780 Climbing New York Center
07:54PM 41.0717 -74.7453 240° Southwest 405 466 26,600 300 Climbing New York Center
07:55PM 41.0089 -74.8792 238° Southwest 416 479 26,900 360 Climbing New York Center
07:56PM 40.9414 -75.0206 238° Southwest 435 501 27,400 600 Climbing New York Center
07:57PM 40.8736 -75.1644 238° Southwest 455 524 28,100 840 Climbing New York Center
07:58PM 40.7994 -75.3078 236° Southwest 467 537 29,100 840 Climbing New York Center
07:59PM 40.7375 -75.4544 241° Southwest 472 543 29,800 960 Climbing New York Center
08:00PM 40.6833 -75.6094 245° Southwest 460 529 31,100 1,020 Climbing New York Center
08:01PM 40.6272 -75.7558 243° Southwest 460 529 31,900 720 Climbing New York Center
08:02PM 40.5728 -75.9050 244° Southwest 460 529 32,600 840 Climbing New York Center
08:03PM 40.5078 -76.0556 240° Southwest 460 529 33,600 660 Climbing New York Center
08:04PM 40.4511 -76.2067 244° Southwest 460 529 34,000 180 Climbing New York Center
08:05PM 40.3961 -76.3550 244° Southwest 455 524 34,000  Level New York Center
08:06PM 40.3392 -76.4975 242° Southwest 455 524 34,000  Level New York Center
08:07PM 40.2800 -76.6450 242° Southwest 455 524 34,000  Level New York Center
08:08PM 40.1908 -76.7597 225° Southwest 451 519 34,000  Level New York Center
08:09PM 40.1019 -76.8661 222° Southwest 451 519 34,000  Level New York Center
08:10PM 40.0364 -77.0042 238° Southwest 451 519 34,000  Level New York Center
08:12PM 40.1069 -77.2847 288° West 432 497 34,000  Level Cleveland Center
08:13PM 40.1717 -77.4311 300° West 442 509 34,000  Level Cleveland Center
08:14PM 40.1781 -77.5939 273° West 435 501 34,000 -60 Level Cleveland Center
08:15PM 40.1719 -77.7600 267° West 446 513 33,900  Descending Cleveland Center
08:16PM 40.1628 -77.8989 265° West 461 531 34,000  Climbing Cleveland Center
08:17PM 40.1522 -78.0758 266° West 461 531 34,000  Level Cleveland Center
08:18PM 40.1411 -78.2419 265° West 461 531 34,000  Level Cleveland Center
08:19PM 40.1339 -78.4106 267° West 461 531 34,000  Level Cleveland Center
08:20PM 40.1244 -78.5767 266° West 461 531 34,000  Level Cleveland Center
08:21PM 40.1150 -78.7453 266° West 461 531 34,000  Level Cleveland Center
08:22PM 40.1069 -78.9111 266° West 461 531 34,000 -60 Level Cleveland Center
08:23PM 40.0969 -79.0769 266° West 461 531 33,900  Descending Cleveland Center
08:24PM 40.0864 -79.2481 265° West 467 537 34,000  Climbing Cleveland Center
08:25PM 40.0800 -79.4136 267° West 467 537 34,000  Level Cleveland Center
08:26PM 40.0692 -79.5847 265° West 467 537 34,000  Level Cleveland Center
08:27PM 40.0578 -79.7531 265° West 467 537 34,000  Level Cleveland Center
08:28PM 40.0486 -79.9186 266° West 467 537 34,000  Level Cleveland Center
08:29PM 40.0369 -80.0897 265° West 467 537 34,000  Level Cleveland Center
08:30PM 40.0250 -80.2578 265° West 467 537 34,000  Level Cleveland Center
08:31PM 40.0150 -80.4286 266° West 467 537 34,000  Level Cleveland Center
08:32PM 40.0006 -80.5994 264° West 472 543 34,000  Level Cleveland Center
08:33PM 39.9900 -80.7700 265° West 472 543 34,000  Level Cleveland Center
08:34PM 39.9756 -80.9294 263° West 470 541 34,000  Level Indianapolis Center
08:35PM 39.9625 -81.0992 264° West 468 539 34,000  Level Indianapolis Center
08:36PM 39.9528 -81.2442 265° West 465 535 34,000  Level Indianapolis Center
08:37PM 39.9364 -81.4439 264° West 464 534 34,000  Level Indianapolis Center
08:38PM 39.9250 -81.5919 264° West 468 539 34,000  Level Indianapolis Center
08:39PM 39.9111 -81.7603 264° West 467 537 34,000  Level Indianapolis Center
08:40PM 39.8953 -81.9597 264° West 470 541 34,000  Level Indianapolis Center
08:41PM 39.8811 -82.1300 264° West 470 541 34,000  Level Indianapolis Center
08:42PM 39.8658 -82.2997 263° West 468 539 34,000  Level Indianapolis Center
08:43PM 39.8511 -82.4694 264° West 468 539 34,000  Level Indianapolis Center
08:44PM 39.8367 -82.6394 264° West 470 541 34,000  Level Indianapolis Center
08:45PM 39.8208 -82.8092 263° West 468 539 34,000  Level Indianapolis Center
08:46PM 39.8058 -82.9792 264° West 469 540 34,000  Level Indianapolis Center
08:47PM 39.7894 -83.1481 263° West 468 539 34,000  Level Indianapolis Center
08:48PM 39.7725 -83.3175 263° West 467 537 34,000  Level Indianapolis Center
08:49PM 39.7567 -83.4958 263° West 476 548 34,000  Level Indianapolis Center
08:50PM 39.7408 -83.6419 262° West 474 545 34,000 -60 Level Indianapolis Center
08:51PM 39.7247 -83.8119 263° West 469 540 33,900  Descending Indianapolis Center
08:52PM 39.7092 -83.9808 263° West 467 537 34,000  Climbing Indianapolis Center
08:53PM 39.6911 -84.1497 262° West 468 539 34,000  Level Indianapolis Center
08:54PM 39.6706 -84.3467 262° West 469 540 34,000  Level Indianapolis Center
08:55PM 39.6528 -84.5136 262° West 464 534 34,000 -60 Level Indianapolis Center
08:56PM 39.6358 -84.6789 262° West 460 529 33,900 -60 Descending Indianapolis Center
08:57PM 39.6186 -84.8453 262° West 462 532 33,900  Level Indianapolis Center
08:58PM 39.5989 -85.0083 261° West 464 534 34,000  Climbing Indianapolis Center
08:59PM 39.5814 -85.1742 262° West 464 534 34,000  Level Indianapolis Center
09:00PM 39.5631 -85.3386 262° West 462 532 34,000  Level Indianapolis Center
09:01PM 39.5433 -85.5014 261° West 459 528 34,000 180 Level Indianapolis Center
09:02PM 39.5256 -85.6631 262° West 455 524 34,400 540 Climbing Indianapolis Center
09:03PM 39.5056 -85.8264 261° West 459 528 35,200 660 Climbing Indianapolis Center
09:04PM 39.4867 -85.9883 261° West 455 524 35,800 360 Climbing Indianapolis Center
09:05PM 39.4664 -86.1525 261° West 458 527 36,000 60 Climbing Indianapolis Center
09:06PM 39.4469 -86.3194 261° West 464 534 36,000  Level Indianapolis Center
09:07PM 39.4008 -86.4708 249° West 447 514 36,000  Level Indianapolis Center
09:08PM 39.3481 -86.6169 245° Southwest 447 514 36,000  Level Indianapolis Center
09:09PM 39.2958 -86.7614 245° Southwest 443 510 36,000  Level Indianapolis Center
09:10PM 39.2458 -86.9064 246° West 443 510 36,000  Level Indianapolis Center
09:11PM 39.1908 -87.0853 248° West 448 516 36,000  Level Indianapolis Center
09:12PM 39.1481 -87.2361 250° West 448 516 36,000  Level Indianapolis Center
09:13PM 39.1067 -87.3786 250° West 451 519 36,000 -60 Level Indianapolis Center
09:14PM 39.0614 -87.5289 249° West 452 520 35,900  Descending Indianapolis Center
09:15PM 39.0172 -87.6828 250° West 457 526 36,000  Climbing Indianapolis Center
09:16PM 38.9739 -87.8428 251° West 471 542 36,000  Level Indianapolis Center
09:17PM 38.9311 -88.0056 251° West 479 551 36,000  Level Indianapolis Center
09:18PM 38.9056 -88.1447 257° West 489 563 36,100  Climbing Kansas City Center
09:19PM 38.8972 -88.3217 267° West 497 572 36,100 -60 Level Kansas City Center
09:20PM 38.8892 -88.4975 267° West 495 570 36,000 -60 Descending Kansas City Center
09:21PM 38.8800 -88.6603 266° West 493 567 36,000  Level Kansas City Center
09:22PM 38.8703 -88.8658 267° West 485 558 36,000  Level Kansas City Center
09:23PM 38.8608 -89.0414 266° West 486 559 36,000  Level Kansas City Center
09:24PM 38.8514 -89.2144 266° West 488 562 36,000  Level Kansas City Center
09:25PM 38.8414 -89.4014 266° West 490 564 36,000  Level Kansas City Center
09:26PM 38.8306 -89.5756 265° West 491 565 36,000  Level Kansas City Center
09:27PM 38.8197 -89.7339 265° West 492 566 36,100  Climbing Kansas City Center
09:28PM 38.8089 -89.9067 265° West 490 564 36,000 -60 Descending Kansas City Center
09:29PM 38.7978 -90.1011 266° West 489 563 36,000  Level Kansas City Center
09:30PM 38.7869 -90.2772 266° West 494 568 36,000  Level Kansas City Center
09:31PM 38.7711 -90.4547 264° West 498 573 36,000  Level Kansas City Center
09:32PM 38.7583 -90.6328 265° West 500 575 36,100  Climbing Kansas City Center
09:34PM 38.7475 -90.8139 266° West 517 595 36,000 -120 Descending Kansas City Center
09:35PM 38.7347 -90.9864 265° West 505 581 35,900  Descending Kansas City Center
09:36PM 38.7222 -91.1608 265° West 498 573 36,000  Climbing Kansas City Center
09:37PM 38.7086 -91.3339 264° West 494 568 36,000  Level Kansas City Center
09:38PM 38.6969 -91.5106 265° West 490 564 36,000  Level Kansas City Center
09:39PM 38.6803 -91.7228 264° West 497 572 36,000  Level Kansas City Center
09:40PM 38.6650 -91.8953 264° West 495 570 36,000  Level Kansas City Center
09:41PM 38.6500 -92.0683 264° West 492 566 36,000  Level Kansas City Center
09:42PM 38.6358 -92.2439 264° West 494 568 36,000  Level Kansas City Center
09:43PM 38.6217 -92.4186 264° West 496 571 36,000  Level Kansas City Center
09:44PM 38.6067 -92.5936 264° West 497 572 36,000  Level Kansas City Center
09:45PM 38.5906 -92.7681 263° West 498 573 36,000  Level Kansas City Center
09:46PM 38.5742 -92.9400 263° West 495 570 36,000  Level Kansas City Center
09:47PM 38.5592 -93.1067 263° West 486 559 36,000  Level Kansas City Center
09:48PM 38.5414 -93.3092 264° West 480 552 36,000  Level Kansas City Center
09:49PM 38.5247 -93.4764 263° West 477 549 36,000  Level Kansas City Center
09:50PM 38.5086 -93.6422 263° West 474 545 36,000  Level Kansas City Center
09:51PM 38.4950 -93.7892 263° West 473 544 36,000  Level Kansas City Center
09:52PM 38.4764 -93.9731 263° West 469 540 36,000  Level Kansas City Center
09:53PM 38.4614 -94.1303 263° West 464 534 36,000  Level Kansas City Center
09:54PM 38.4425 -94.3108 262° West 466 536 36,000  Level Kansas City Center
09:55PM 38.4250 -94.4656 262° West 462 532 36,000  Level Kansas City Center
09:56PM 38.3867 -94.6172 252° West 466 536 36,000  Level Kansas City Center
09:57PM 38.3442 -94.7950 253° West 468 539 36,000  Level Kansas City Center
09:58PM 38.3017 -94.9453 250° West 470 541 36,000  Level Kansas City Center
09:59PM 38.2600 -95.0956 251° West 469 540 36,000  Level Kansas City Center
10:00PM 38.2139 -95.2714 252° West 469 540 36,000  Level Kansas City Center
10:01PM 38.1917 -95.4283 260° West 462 532 36,000  Level Kansas City Center
10:02PM 38.1756 -95.5817 262° West 459 528 36,000  Level Kansas City Center
10:03PM 38.1556 -95.7628 262° West 461 531 36,000  Level Kansas City Center
10:04PM 38.1386 -95.9197 262° West 465 535 36,000  Level Kansas City Center
10:05PM 38.1211 -96.0781 262° West 472 543 36,000  Level Kansas City Center
10:06PM 38.0994 -96.2675 262° West 477 549 36,000  Level Kansas City Center
10:07PM 38.0797 -96.4331 261° West 476 548 36,000  Level Kansas City Center
10:08PM 38.0611 -96.5994 262° West 475 547 36,000  Level Kansas City Center
10:09PM 38.0419 -96.7642 262° West 473 544 36,000  Level Kansas City Center
10:10PM 38.0222 -96.9275 261° West 470 541 36,000  Level Kansas City Center
10:11PM 38.0031 -97.0903 262° West 467 537 36,000  Level Kansas City Center
10:12PM 37.9831 -97.2517 261° West 465 535 36,000  Level Kansas City Center
10:13PM 37.9625 -97.4122 261° West 462 532 36,000  Level Kansas City Center
10:14PM 37.9403 -97.5997 262° West 468 539 36,000  Level Kansas City Center
10:15PM 37.9197 -97.7619 261° West 469 540 36,000  Level Kansas City Center
10:16PM 37.9017 -97.9133 261° West 470 541 36,000  Level Kansas City Center
10:17PM 37.8800 -98.0756 260° West 470 541 36,000  Level Kansas City Center
10:18PM 37.8581 -98.2389 260° West 462 532 36,000  Level Kansas City Center
10:19PM 37.8369 -98.3997 261° West 464 534 36,000  Level Kansas City Center
10:20PM 37.8153 -98.5597 260° West 463 533 36,000  Level Kansas City Center
10:21PM 37.7928 -98.7183 260° West 460 529 36,000  Level Kansas City Center
10:22PM 37.7706 -98.8761 260° West 458 527 36,000  Level Kansas City Center
10:23PM 37.7489 -99.0364 260° West 460 529 36,000  Level Kansas City Center
10:24PM 37.7219 -99.2283 260° West 463 533 36,000  Level Kansas City Center
10:25PM 37.6992 -99.3889 260° West 464 534 36,000  Level Kansas City Center
10:26PM 37.6778 -99.5369 260° West 463 533 36,000  Level Kansas City Center
10:27PM 37.6525 -99.7144 260° West 461 531 36,000  Level Kansas City Center
10:29PM 37.6306 -99.8656 260° West 459 528 36,000  Level Kansas City Center
10:30PM 37.6083 -100.0156 259° West 456 525 36,000  Level Kansas City Center
10:31PM 37.5825 -100.1892 259° West 452 520 36,000  Level Kansas City Center
10:32PM 37.5597 -100.3386 259° West 452 520 36,000  Level Kansas City Center
10:33PM 37.5378 -100.4839 259° West 453 521 36,000  Level Kansas City Center
10:34PM 37.5103 -100.6672 259° West 458 527 36,000  Level Kansas City Center
10:35PM 37.4853 -100.8219 259° West 462 532 36,000  Level Kansas City Center
10:36PM 37.4608 -100.9767 259° West 464 534 36,000  Level Kansas City Center
10:37PM 37.4344 -101.1533 259° West 459 528 36,000  Level Kansas City Center
10:38PM 37.4114 -101.3022 259° West 454 522 36,000  Level Kansas City Center
10:39PM 37.3844 -101.4500 257° West 454 522 36,000  Level Kansas City Center
10:40PM 37.3267 -101.6136 246° West 458 527 36,000  Level Kansas City Center
10:41PM 37.2808 -101.7564 248° West 460 529 36,000  Level Kansas City Center
10:42PM 37.2336 -101.8964 247° West 456 525 36,000  Level Kansas City Center
10:43PM 37.1650 -102.1075 248° West 455 524 36,000  Level Kansas City Center
10:44PM 37.1133 -102.2722 249° West 456 525 36,000  Level Kansas City Center
10:45PM 37.0903 -102.3456 249° West 457 526 36,000  Level Albuquerque Center
10:46PM 37.0456 -102.4886 249° West 460 529 36,000  Level Albuquerque Center
10:47PM 36.9928 -102.6558 248° West 457 526 36,000  Level Albuquerque Center
10:48PM 36.9492 -102.7981 249° West 458 527 36,000  Level Albuquerque Center
10:49PM 36.9028 -102.9411 248° West 461 531 36,000  Level Albuquerque Center
10:50PM 36.8514 -103.1089 249° West 461 531 36,000  Level Albuquerque Center
10:51PM 36.8297 -103.2583 260° West 461 531 36,000  Level Albuquerque Center
10:52PM 36.8044 -103.4094 258° West 460 529 36,000  Level Albuquerque Center
10:53PM 36.7758 -103.5853 259° West 461 531 36,000  Level Albuquerque Center
10:54PM 36.7511 -103.7358 258° West 463 533 36,000  Level Albuquerque Center
10:55PM 36.7261 -103.8858 258° West 460 529 36,000  Level Albuquerque Center
10:56PM 36.7008 -104.0619 260° West 461 531 36,000  Level Albuquerque Center
10:57PM 36.7056 -104.2147 272° West 460 529 36,000  Level Albuquerque Center
10:58PM 36.7125 -104.3686 273° West 462 532 36,000  Level Albuquerque Center
10:59PM 36.7178 -104.5450 272° West 457 526 36,000  Level Albuquerque Center
11:00PM 36.7200 -104.6989 271° West 461 531 36,000  Level Albuquerque Center
11:01PM 36.7200 -104.8494 270° West 457 526 36,000  Level Albuquerque Center
11:02PM 36.7197 -105.0286 270° West 461 531 36,000  Level Albuquerque Center
11:03PM 36.7192 -105.1806 270° West 460 529 36,000  Level Albuquerque Center
11:04PM 36.7208 -105.3347 271° West 462 532 36,000  Level Albuquerque Center
11:05PM 36.7211 -105.5119 270° West 460 529 36,000  Level Albuquerque Center
11:06PM 36.7228 -105.6414 271° West 461 531 36,000  Level Denver Center
11:07PM 36.7233 -105.7936 270° West 459 528 36,000  Level Denver Center
11:08PM 36.7225 -105.9447 270° West 461 531 36,000  Level Denver Center
11:09PM 36.6808 -106.1247 254° West 453 521 36,000  Level Denver Center
11:10PM 36.6497 -106.2758 256° West 450 518 36,000  Level Denver Center
11:11PM 36.6161 -106.4253 254° West 450 518 36,000  Level Denver Center
11:12PM 36.5839 -106.5686 254° West 454 522 36,000  Level Denver Center
11:13PM 36.5461 -106.7383 255° West 456 525 36,000  Level Denver Center
11:14PM 36.5142 -106.8847 255° West 457 526 36,000  Level Denver Center
11:15PM 36.4744 -107.0533 254° West 456 525 36,000  Level Denver Center
11:16PM 36.4428 -107.1978 255° West 455 524 36,000  Level Denver Center
11:17PM 36.4089 -107.3422 254° West 456 525 36,000  Level Denver Center
11:18PM 36.3697 -107.5133 254° West 459 528 36,100  Climbing Denver Center
11:19PM 36.3353 -107.6586 254° West 460 529 36,100 -60 Level Denver Center
11:20PM 36.2964 -107.8275 254° West 457 526 36,000 -60 Descending Denver Center
11:21PM 36.2631 -107.9717 254° West 456 525 36,000  Level Denver Center
11:22PM 36.2167 -108.1639 253° West 456 525 36,000  Level Denver Center
11:23PM 36.1825 -108.3092 254° West 458 527 36,000  Level Denver Center
11:24PM 36.1475 -108.4536 253° West 459 528 36,000  Level Denver Center
11:25PM 36.1181 -108.5728 253° West 456 525 36,000  Level Denver Center
11:26PM 36.0708 -108.7597 253° West 449 517 36,000  Level Denver Center
11:28PM 36.0339 -108.9036 252° West 486 559 36,000  Level Denver Center
11:29PM 35.9950 -109.0683 254° West 462 532 36,000  Level Denver Center
11:30PM 35.9553 -109.2364 254° West 456 525 36,100  Climbing Denver Center
11:31PM 35.9186 -109.3789 252° West 455 524 36,000 -60 Descending Denver Center
11:32PM 35.8767 -109.5447 253° West 456 525 36,000  Level Albuquerque Center
11:33PM 35.8339 -109.7083 252° West 450 518 36,000  Level Albuquerque Center
11:34PM 35.7978 -109.8503 253° West 451 519 36,000  Level Albuquerque Center
11:35PM 35.7625 -109.9817 252° West 453 521 36,000  Level Albuquerque Center
11:36PM 35.7203 -110.1564 253° West 452 520 36,000  Level Albuquerque Center
11:37PM 35.6803 -110.2994 251° West 457 526 36,100  Climbing Albuquerque Center
11:38PM 35.6433 -110.4422 252° West 458 527 36,000 -60 Descending Albuquerque Center
11:39PM 35.6000 -110.6075 252° West 456 525 36,000  Level Albuquerque Center
11:40PM 35.5650 -110.7492 253° West 453 521 36,000  Level Albuquerque Center
11:41PM 35.5250 -110.8906 251° West 455 524 36,000  Level Albuquerque Center
11:42PM 35.4819 -111.0558 252° West 456 525 36,000  Level Albuquerque Center
11:43PM 35.4442 -111.1967 252° West 456 525 36,000  Level Albuquerque Center
11:44PM 35.4006 -111.3636 252° West 459 528 36,000  Level Albuquerque Center
11:45PM 35.3656 -111.4975 252° West 466 536 36,000  Level Albuquerque Center
11:46PM 35.3242 -111.6444 251° West 463 533 36,000  Level Albuquerque Center
11:47PM 35.2844 -111.7922 252° West 460 529 36,000  Level Albuquerque Center
11:48PM 35.2439 -111.9411 252° West 462 532 36,000  Level Albuquerque Center
11:49PM 35.2028 -112.0878 251° West 461 531 36,000  Level Albuquerque Center
11:50PM 35.1536 -112.2644 251° West 460 529 36,000  Level Albuquerque Center
11:51PM 35.1136 -112.4089 251° West 454 522 36,000  Level Albuquerque Center
11:52PM 35.0725 -112.5542 251° West 453 521 36,000  Level Albuquerque Center
11:53PM 35.0314 -112.6992 251° West 451 519 36,000  Level Albuquerque Center
11:54PM 34.9900 -112.8450 251° West 453 521 36,000  Level Albuquerque Center
11:55PM 34.9478 -112.9903 251° West 454 522 36,000  Level Albuquerque Center
11:56PM 34.9053 -113.1361 250° West 455 524 36,000  Level Albuquerque Center
11:57PM 34.8644 -113.2800 251° West 452 520 36,000  Level Albuquerque Center
11:58PM 34.8225 -113.4231 250° West 450 518 36,000  Level Albuquerque Center
11:59PM 34.7800 -113.5656 250° West 450 518 36,000  Level Albuquerque Center
12:00AM 34.7392 -113.7075 251° West 449 517 36,000  Level Albuquerque Center
12:01AM 34.6978 -113.8500 251° West 448 516 36,000  Level Albuquerque Center
12:02AM 34.6486 -114.0067 249° West 445 512 36,000  Level Albuquerque Center
12:03AM 34.6047 -114.1492 250° West 447 514 36,000  Level Albuquerque Center
12:04AM 34.5611 -114.2889 249° West 445 512 36,000 -300 Level Albuquerque Center
12:05AM 34.5194 -114.4225 249° West 431 496 35,500 -780 Descending Albuquerque Center
12:06AM 34.4778 -114.5553 249° West 423 487 34,500 -1,020 Descending Albuquerque Center
12:07AM 34.4278 -114.7150 249° West 434 499 33,300 -1,020 Descending Los Angeles Center
12:08AM 34.3844 -114.8519 249° West 436 502 32,300 -660 Descending Los Angeles Center
12:09AM 34.3403 -114.9892 249° West 438 504 32,000 -180 Descending Los Angeles Center
12:11AM 34.2875 -115.1536 249° West 438 504 32,000 -60 Level Los Angeles Center
12:12AM 34.2447 -115.2875 249° West 430 495 31,900 -120 Descending Los Angeles Center
12:13AM 34.2014 -115.4225 249° West 433 498 31,800 -420 Descending Los Angeles Center
12:14AM 34.1589 -115.5567 249° West 430 495 31,100 -780 Descending Los Angeles Center
12:15AM 34.1144 -115.6908 248° West 432 497 30,300 -840 Descending Los Angeles Center
12:16AM 34.0700 -115.8256 248° West 432 497 29,500 -660 Descending Los Angeles Center
12:17AM 34.0261 -115.9589 248° West 431 496 29,000 -720 Descending Los Angeles Center
12:18AM 33.9811 -116.0942 248° West 435 501 28,100 -1,680 Descending Los Angeles Center
12:19AM 33.9372 -116.2292 249° West 435 501 25,600 -2,760 Descending Los Angeles Center
12:20AM 33.8928 -116.3597 248° West 431 496 22,500 -3,120 Descending Los Angeles Center
12:21AM 33.8739 -116.5214 262° West 412 474 19,300 -2,520 Descending Los Angeles Center
12:22AM 33.8800 -116.6500 273° West 395 455 17,400 -1,980 Descending Los Angeles Center
12:23AM 33.8853 -116.7753 273° West 380 437 15,300 -1,740 Descending Los Angeles Center
12:24AM 33.8778 -116.8967 266° West 382 440 13,900 -1,380 Descending Los Angeles Center
12:25AM 33.8614 -117.0169 261° West 366 421 12,500 -1,380 Descending Los Angeles Center
12:26AM 33.8453 -117.1339 261° West 353 406 11,200 -1,200 Descending Los Angeles Center
12:26AM 33.8333 -117.2167 260° West 321 369 10,500 -780 Descending Southern California TRACON
12:27AM 33.8167 -117.3000 256° West 284 327 10,000 -900 Descending Southern California TRACON
12:28AM 33.8000 -117.4000 259° West 282 325 8,800 -960 Descending Southern California TRACON
12:29AM 33.8000 -117.4833 270° West 258 297 8,100 -420 Descending Southern California TRACON
12:30AM 33.7833 -117.5667 256° West 246 283 8,000 -120 Descending Southern California TRACON
12:31AM 33.7814 -117.5861 263° West 246 283 8,000 -600 Level Los Angeles Center
12:31AM 33.7667 -117.6333 249° West 243 280 7,400 -1,500 Descending Southern California TRACON
12:32AM 33.7500 -117.7167 256° West 239 275 5,800 -1,440 Descending Southern California TRACON
12:33AM 33.6833 -117.7333 192° South 241 277 4,600 -900 Descending Southern California TRACON
12:34AM 33.6500 -117.7833 231° Southwest 229 264 4,000 -300 Descending Southern California TRACON
12:35AM 33.6500 -117.8667 270° West 217 250 4,000  Level Southern California TRACON
12:37AM 33.6500 -117.9333 270° West 212 244 4,000 -240 Level Southern California TRACON
12:38AM 33.6833 -117.9833 309° West 195 224 3,500 -780 Descending Southern California TRACON
12:38AM 33.7167 -118.0333 309° West 203 234 2,600 -960 Descending Southern California TRACON
12:40AM 33.7500 -118.0833 309° West 173 199 1,600 -900 Descending Southern California TRACON
12:40AM 33.7833 -118.1000 337° Northwest 144 166 900 -720 Descending Southern California TRACON
12:42AM 33.8167 -118.1333 320° Northwest 130 150 200 -480 Descending Southern California TRACON
12:42AM 33.8233 -118.1581 288° West 146 168 100 -180 Descending Los Angeles Center